sensor_id;sensor_type;location;lat;lon;timestamp;pressure;altitude;pressure_sealevel;temperature
67829;BMP280;54626;45.436;10.942;2023-06-22T00:01:19;100934.03;;;25.68
67829;BMP280;54626;45.436;10.942;2023-06-22T00:03:46;100931.47;;;25.59
67829;BMP280;54626;45.436;10.942;2023-06-22T00:06:13;100938.06;;;25.63
67829;BMP280;54626;45.436;10.942;2023-06-22T00:08:40;100936.88;;;25.68
67829;BMP280;54626;45.436;10.942;2023-06-22T00:11:06;100936.06;;;25.66
67829;BMP280;54626;45.436;10.942;2023-06-22T00:13:33;100938.88;;;25.66
67829;BMP280;54626;45.436;10.942;2023-06-22T00:15:59;100940.88;;;25.48
67829;BMP280;54626;45.436;10.942;2023-06-22T00:18:26;100936.75;;;25.51
67829;BMP280;54626;45.436;10.942;2023-06-22T00:20:55;100935.69;;;25.42
67829;BMP280;54626;45.436;10.942;2023-06-22T00:23:24;100931.06;;;25.36
67829;BMP280;54626;45.436;10.942;2023-06-22T00:25:51;100940.84;;;25.33
67829;BMP280;54626;45.436;10.942;2023-06-22T00:28:18;100938.28;;;25.23
67829;BMP280;54626;45.436;10.942;2023-06-22T00:30:45;100935.59;;;25.12
67829;BMP280;54626;45.436;10.942;2023-06-22T00:33:12;100930.72;;;24.99
67829;BMP280;54626;45.436;10.942;2023-06-22T00:35:39;100922.88;;;24.97
67829;BMP280;54626;45.436;10.942;2023-06-22T00:38:07;100922.97;;;24.99
67829;BMP280;54626;45.436;10.942;2023-06-22T00:40:34;100935.31;;;25.06
67829;BMP280;54626;45.436;10.942;2023-06-22T00:43:02;100926.53;;;25.00
67829;BMP280;54626;45.436;10.942;2023-06-22T00:45:28;100927.81;;;24.97
67829;BMP280;54626;45.436;10.942;2023-06-22T00:47:58;100920.84;;;25.00
67829;BMP280;54626;45.436;10.942;2023-06-22T00:50:27;100915.56;;;25.08
67829;BMP280;54626;45.436;10.942;2023-06-22T00:52:57;100906.91;;;25.04
67829;BMP280;54626;45.436;10.942;2023-06-22T00:55:25;100892.63;;;25.02
67829;BMP280;54626;45.436;10.942;2023-06-22T00:57:52;100907.56;;;24.89
67829;BMP280;54626;45.436;10.942;2023-06-22T01:00:24;100915.06;;;24.83
67829;BMP280;54626;45.436;10.942;2023-06-22T01:02:52;100914.03;;;24.76
67829;BMP280;54626;45.436;10.942;2023-06-22T01:05:21;100922.78;;;24.67
67829;BMP280;54626;45.436;10.942;2023-06-22T01:10:51;100912.63;;;24.48
67829;BMP280;54626;45.436;10.942;2023-06-22T01:16:24;100913.44;;;24.64
67829;BMP280;54626;45.436;10.942;2023-06-22T01:18:53;100913.03;;;24.56
67829;BMP280;54626;45.436;10.942;2023-06-22T01:21:23;100908.44;;;24.49
67829;BMP280;54626;45.436;10.942;2023-06-22T01:23:58;100907.50;;;24.45
67829;BMP280;54626;45.436;10.942;2023-06-22T01:27:17;100924.69;;;24.49
67829;BMP280;54626;45.436;10.942;2023-06-22T01:29:52;100921.53;;;24.56
67829;BMP280;54626;45.436;10.942;2023-06-22T01:32:30;100916.50;;;24.55
67829;BMP280;54626;45.436;10.942;2023-06-22T01:34:58;100916.69;;;24.59
67829;BMP280;54626;45.436;10.942;2023-06-22T01:37:27;100921.22;;;24.64
67829;BMP280;54626;45.436;10.942;2023-06-22T01:39:55;100921.28;;;24.66
67829;BMP280;54626;45.436;10.942;2023-06-22T01:42:24;100923.28;;;24.63
67829;BMP280;54626;45.436;10.942;2023-06-22T01:44:52;100927.47;;;24.62
67829;BMP280;54626;45.436;10.942;2023-06-22T01:47:23;100916.28;;;24.64
67829;BMP280;54626;45.436;10.942;2023-06-22T01:49:51;100931.34;;;24.69
67829;BMP280;54626;45.436;10.942;2023-06-22T01:52:18;100929.16;;;24.67
67829;BMP280;54626;45.436;10.942;2023-06-22T01:54:47;100919.81;;;24.65
67829;BMP280;54626;45.436;10.942;2023-06-22T01:57:14;100921.22;;;24.64
67829;BMP280;54626;45.436;10.942;2023-06-22T02:00:02;100924.13;;;24.66
67829;BMP280;54626;45.436;10.942;2023-06-22T02:05:10;100919.09;;;24.64
67829;BMP280;54626;45.436;10.942;2023-06-22T02:07:53;100915.44;;;24.62
67829;BMP280;54626;45.436;10.942;2023-06-22T02:10:24;100930.22;;;24.60
67829;BMP280;54626;45.436;10.942;2023-06-22T02:12:51;100930.22;;;24.60
67829;BMP280;54626;45.436;10.942;2023-06-22T02:15:18;100924.88;;;24.53
67829;BMP280;54626;45.436;10.942;2023-06-22T02:17:45;100936.81;;;24.51
67829;BMP280;54626;45.436;10.942;2023-06-22T02:20:13;100935.25;;;24.48
67829;BMP280;54626;45.436;10.942;2023-06-22T02:22:41;100935.63;;;24.41
67829;BMP280;54626;45.436;10.942;2023-06-22T02:25:08;100940.63;;;24.29
67829;BMP280;54626;45.436;10.942;2023-06-22T02:27:34;100935.50;;;24.26
67829;BMP280;54626;45.436;10.942;2023-06-22T02:30:01;100946.28;;;24.16
67829;BMP280;54626;45.436;10.942;2023-06-22T02:32:27;100944.09;;;24.14
67829;BMP280;54626;45.436;10.942;2023-06-22T02:34:54;100921.97;;;24.11
67829;BMP280;54626;45.436;10.942;2023-06-22T02:37:20;100939.16;;;24.15
67829;BMP280;54626;45.436;10.942;2023-06-22T02:39:47;100941.25;;;24.14
67829;BMP280;54626;45.436;10.942;2023-06-22T02:42:14;100933.41;;;24.13
67829;BMP280;54626;45.436;10.942;2023-06-22T02:44:41;100935.38;;;23.83
67829;BMP280;54626;45.436;10.942;2023-06-22T02:47:08;100941.22;;;23.74
67829;BMP280;54626;45.436;10.942;2023-06-22T02:49:35;100936.09;;;23.71
67829;BMP280;54626;45.436;10.942;2023-06-22T02:52:01;100936.91;;;23.73
67829;BMP280;54626;45.436;10.942;2023-06-22T02:54:28;100931.47;;;23.77
67829;BMP280;54626;45.436;10.942;2023-06-22T02:56:54;100939.34;;;23.79
67829;BMP280;54626;45.436;10.942;2023-06-22T02:59:21;100948.34;;;23.75
67829;BMP280;54626;45.436;10.942;2023-06-22T03:01:51;100937.44;;;23.83
67829;BMP280;54626;45.436;10.942;2023-06-22T03:04:17;100941.16;;;23.85
67829;BMP280;54626;45.436;10.942;2023-06-22T03:06:44;100940.00;;;23.90
67829;BMP280;54626;45.436;10.942;2023-06-22T03:09:15;100940.72;;;23.91
67829;BMP280;54626;45.436;10.942;2023-06-22T03:11:42;100941.69;;;23.95
67829;BMP280;54626;45.436;10.942;2023-06-22T03:14:09;100941.78;;;23.97
67829;BMP280;54626;45.436;10.942;2023-06-22T03:16:35;100941.03;;;23.97
67829;BMP280;54626;45.436;10.942;2023-06-22T03:19:03;100945.53;;;24.02
67829;BMP280;54626;45.436;10.942;2023-06-22T03:21:29;100945.53;;;24.02
67829;BMP280;54626;45.436;10.942;2023-06-22T03:23:56;100938.41;;;24.01
67829;BMP280;54626;45.436;10.942;2023-06-22T03:26:22;100940.19;;;24.08
67829;BMP280;54626;45.436;10.942;2023-06-22T03:28:53;100938.84;;;24.09
67829;BMP280;54626;45.436;10.942;2023-06-22T03:31:20;100947.63;;;24.15
67829;BMP280;54626;45.436;10.942;2023-06-22T03:33:49;100932.16;;;24.16
67829;BMP280;54626;45.436;10.942;2023-06-22T03:36:17;100939.06;;;24.13
67829;BMP280;54626;45.436;10.942;2023-06-22T03:38:47;100943.56;;;24.18
67829;BMP280;54626;45.436;10.942;2023-06-22T03:41:14;100941.38;;;24.16
67829;BMP280;54626;45.436;10.942;2023-06-22T03:43:44;100932.78;;;24.14
67829;BMP280;54626;45.436;10.942;2023-06-22T03:46:10;100944.81;;;24.15
67829;BMP280;54626;45.436;10.942;2023-06-22T03:48:37;100947.13;;;24.18
67829;BMP280;54626;45.436;10.942;2023-06-22T03:51:04;100952.25;;;24.22
67829;BMP280;54626;45.436;10.942;2023-06-22T03:53:31;100948.28;;;24.27
67829;BMP280;54626;45.436;10.942;2023-06-22T03:55:58;100934.53;;;24.34
67829;BMP280;54626;45.436;10.942;2023-06-22T03:58:30;100932.03;;;24.40
67829;BMP280;54626;45.436;10.942;2023-06-22T04:00:59;100937.78;;;24.42
67829;BMP280;54626;45.436;10.942;2023-06-22T04:03:26;100940.22;;;24.48
67829;BMP280;54626;45.436;10.942;2023-06-22T04:05:53;100941.66;;;24.49
67829;BMP280;54626;45.436;10.942;2023-06-22T04:08:20;100945.72;;;24.59
67829;BMP280;54626;45.436;10.942;2023-06-22T04:10:47;100941.91;;;24.68
67829;BMP280;54626;45.436;10.942;2023-06-22T04:13:13;100940.69;;;24.71
67829;BMP280;54626;45.436;10.942;2023-06-22T04:15:40;100943.00;;;24.75
67829;BMP280;54626;45.436;10.942;2023-06-22T04:18:06;100940.66;;;24.85
67829;BMP280;54626;45.436;10.942;2023-06-22T04:20:33;100933.91;;;24.91
67829;BMP280;54626;45.436;10.942;2023-06-22T04:23:00;100931.78;;;24.92
67829;BMP280;54626;45.436;10.942;2023-06-22T04:25:27;100938.13;;;24.90
67829;BMP280;54626;45.436;10.942;2023-06-22T04:27:54;100927.16;;;24.98
67829;BMP280;54626;45.436;10.942;2023-06-22T04:30:21;100921.59;;;25.00
67829;BMP280;54626;45.436;10.942;2023-06-22T04:32:48;100919.78;;;25.07
67829;BMP280;54626;45.436;10.942;2023-06-22T04:35:24;100919.25;;;25.10
67829;BMP280;54626;45.436;10.942;2023-06-22T04:37:57;100928.38;;;25.09
67829;BMP280;54626;45.436;10.942;2023-06-22T04:40:24;100932.97;;;25.16
67829;BMP280;54626;45.436;10.942;2023-06-22T04:42:51;100935.25;;;25.19
67829;BMP280;54626;45.436;10.942;2023-06-22T04:49:21;100930.78;;;25.14
67829;BMP280;54626;45.436;10.942;2023-06-22T04:51:51;100929.59;;;25.19
67829;BMP280;54626;45.436;10.942;2023-06-22T04:54:18;100933.34;;;25.24
67829;BMP280;54626;45.436;10.942;2023-06-22T04:56:44;100923.84;;;25.33
67829;BMP280;54626;45.436;10.942;2023-06-22T04:59:12;100929.00;;;25.36
67829;BMP280;54626;45.436;10.942;2023-06-22T05:01:39;100927.38;;;25.46
67829;BMP280;54626;45.436;10.942;2023-06-22T05:04:10;100934.88;;;25.55
67829;BMP280;54626;45.436;10.942;2023-06-22T05:06:37;100936.63;;;25.62
67829;BMP280;54626;45.436;10.942;2023-06-22T05:09:06;100931.94;;;25.69
67829;BMP280;54626;45.436;10.942;2023-06-22T05:11:33;100935.69;;;25.73
67829;BMP280;54626;45.436;10.942;2023-06-22T05:13:59;100926.06;;;25.80
67829;BMP280;54626;45.436;10.942;2023-06-22T05:16:26;100936.59;;;25.93
67829;BMP280;54626;45.436;10.942;2023-06-22T05:18:53;100932.84;;;26.04
67829;BMP280;54626;45.436;10.942;2023-06-22T05:21:26;100926.31;;;26.17
67829;BMP280;54626;45.436;10.942;2023-06-22T05:23:53;100925.59;;;26.34
67829;BMP280;54626;45.436;10.942;2023-06-22T05:26:21;100917.69;;;26.47
67829;BMP280;54626;45.436;10.942;2023-06-22T05:28:48;100932.69;;;26.50
67829;BMP280;54626;45.436;10.942;2023-06-22T05:31:15;100926.03;;;26.43
67829;BMP280;54626;45.436;10.942;2023-06-22T05:33:43;100928.78;;;26.59
67829;BMP280;54626;45.436;10.942;2023-06-22T05:36:10;100933.22;;;26.79
67829;BMP280;54626;45.436;10.942;2023-06-22T05:38:37;100925.88;;;26.91
67829;BMP280;54626;45.436;10.942;2023-06-22T05:41:04;100925.88;;;27.09
67829;BMP280;54626;45.436;10.942;2023-06-22T05:43:31;100926.00;;;27.30
67829;BMP280;54626;45.436;10.942;2023-06-22T05:45:59;100924.13;;;27.36
67829;BMP280;54626;45.436;10.942;2023-06-22T05:48:26;100926.34;;;27.57
67829;BMP280;54626;45.436;10.942;2023-06-22T05:54:09;100924.22;;;27.77
67829;BMP280;54626;45.436;10.942;2023-06-22T05:56:38;100931.94;;;27.94
67829;BMP280;54626;45.436;10.942;2023-06-22T05:59:12;100927.69;;;27.95
67829;BMP280;54626;45.436;10.942;2023-06-22T06:01:39;100914.09;;;28.13
67829;BMP280;54626;45.436;10.942;2023-06-22T06:04:06;100923.25;;;28.30
67829;BMP280;54626;45.436;10.942;2023-06-22T06:06:35;100916.59;;;28.22
67829;BMP280;54626;45.436;10.942;2023-06-22T06:09:29;100914.84;;;28.13
67829;BMP280;54626;45.436;10.942;2023-06-22T06:11:55;100920.69;;;28.17
67829;BMP280;54626;45.436;10.942;2023-06-22T06:14:22;100914.50;;;28.25
67829;BMP280;54626;45.436;10.942;2023-06-22T06:16:54;100920.47;;;28.32
67829;BMP280;54626;45.436;10.942;2023-06-22T06:22:32;100922.34;;;28.24
67829;BMP280;54626;45.436;10.942;2023-06-22T06:25:05;100928.88;;;28.07
67829;BMP280;54626;45.436;10.942;2023-06-22T06:27:32;100924.16;;;28.16
67829;BMP280;54626;45.436;10.942;2023-06-22T06:29:58;100921.25;;;28.14
67829;BMP280;54626;45.436;10.942;2023-06-22T06:32:46;100925.19;;;28.24
67829;BMP280;54626;45.436;10.942;2023-06-22T06:35:33;100922.69;;;28.34
67829;BMP280;54626;45.436;10.942;2023-06-22T06:38:01;100927.25;;;28.43
67829;BMP280;54626;45.436;10.942;2023-06-22T06:40:28;100925.44;;;28.53
67829;BMP280;54626;45.436;10.942;2023-06-22T06:43:15;100919.75;;;28.53
67829;BMP280;54626;45.436;10.942;2023-06-22T06:45:42;100924.13;;;28.56
67829;BMP280;54626;45.436;10.942;2023-06-22T06:48:27;100915.84;;;28.64
67829;BMP280;54626;45.436;10.942;2023-06-22T06:50:57;100927.41;;;28.70
67829;BMP280;54626;45.436;10.942;2023-06-22T06:53:51;100934.91;;;28.81
67829;BMP280;54626;45.436;10.942;2023-06-22T06:56:18;100925.84;;;28.65
67829;BMP280;54626;45.436;10.942;2023-06-22T06:58:45;100930.16;;;28.66
67829;BMP280;54626;45.436;10.942;2023-06-22T07:01:12;100927.69;;;28.78
67829;BMP280;54626;45.436;10.942;2023-06-22T07:03:39;100926.22;;;28.98
67829;BMP280;54626;45.436;10.942;2023-06-22T07:09:26;100921.63;;;29.36
67829;BMP280;54626;45.436;10.942;2023-06-22T07:12:00;100913.91;;;29.15
67829;BMP280;54626;45.436;10.942;2023-06-22T07:14:26;100903.38;;;29.22
67829;BMP280;54626;45.436;10.942;2023-06-22T07:16:55;100905.81;;;29.31
67829;BMP280;54626;45.436;10.942;2023-06-22T07:19:26;100905.09;;;29.07
67829;BMP280;54626;45.436;10.942;2023-06-22T07:21:55;100915.56;;;29.24
67829;BMP280;54626;45.436;10.942;2023-06-22T07:24:42;100911.38;;;29.52
67829;BMP280;54626;45.436;10.942;2023-06-22T07:27:09;100909.72;;;29.68
67829;BMP280;54626;45.436;10.942;2023-06-22T07:32:05;100911.94;;;29.22
67829;BMP280;54626;45.436;10.942;2023-06-22T07:34:45;100920.72;;;29.29
67829;BMP280;54626;45.436;10.942;2023-06-22T07:37:11;100917.78;;;29.51
67829;BMP280;54626;45.436;10.942;2023-06-22T07:39:38;100915.38;;;29.67
67829;BMP280;54626;45.436;10.942;2023-06-22T07:42:05;100900.28;;;29.62
67829;BMP280;54626;45.436;10.942;2023-06-22T07:44:34;100900.56;;;29.99
67829;BMP280;54626;45.436;10.942;2023-06-22T07:47:03;100899.72;;;30.22
67829;BMP280;54626;45.436;10.942;2023-06-22T07:49:36;100904.09;;;29.98
67829;BMP280;54626;45.436;10.942;2023-06-22T07:52:05;100907.63;;;30.23
67829;BMP280;54626;45.436;10.942;2023-06-22T07:54:32;100912.06;;;30.59
67829;BMP280;54626;45.436;10.942;2023-06-22T07:57:02;100918.56;;;30.62
67829;BMP280;54626;45.436;10.942;2023-06-22T07:59:52;100914.38;;;30.98
67829;BMP280;54626;45.436;10.942;2023-06-22T08:02:31;100922.44;;;31.05
67829;BMP280;54626;45.436;10.942;2023-06-22T08:04:59;100913.81;;;31.04
67829;BMP280;54626;45.436;10.942;2023-06-22T08:07:45;100912.38;;;31.04
67829;BMP280;54626;45.436;10.942;2023-06-22T08:10:14;100916.44;;;30.94
67829;BMP280;54626;45.436;10.942;2023-06-22T08:12:41;100918.28;;;30.81
67829;BMP280;54626;45.436;10.942;2023-06-22T08:15:08;100919.31;;;31.29
67829;BMP280;54626;45.436;10.942;2023-06-22T08:17:39;100927.16;;;31.26
67829;BMP280;54626;45.436;10.942;2023-06-22T08:20:09;100921.97;;;31.19
67829;BMP280;54626;45.436;10.942;2023-06-22T08:22:37;100924.25;;;31.24
67829;BMP280;54626;45.436;10.942;2023-06-22T08:25:07;100931.47;;;31.27
67829;BMP280;54626;45.436;10.942;2023-06-22T08:27:36;100931.75;;;31.41
67829;BMP280;54626;45.436;10.942;2023-06-22T08:30:03;100926.78;;;31.44
67829;BMP280;54626;45.436;10.942;2023-06-22T08:32:37;100923.53;;;31.26
67829;BMP280;54626;45.436;10.942;2023-06-22T08:35:04;100913.84;;;31.41
67829;BMP280;54626;45.436;10.942;2023-06-22T08:37:33;100923.28;;;31.47
67829;BMP280;54626;45.436;10.942;2023-06-22T08:40:04;100921.31;;;31.57
67829;BMP280;54626;45.436;10.942;2023-06-22T08:42:32;100919.78;;;31.50
67829;BMP280;54626;45.436;10.942;2023-06-22T08:44:58;100915.19;;;31.36
67829;BMP280;54626;45.436;10.942;2023-06-22T08:47:27;100915.34;;;31.08
67829;BMP280;54626;45.436;10.942;2023-06-22T08:49:54;100915.47;;;31.14
67829;BMP280;54626;45.436;10.942;2023-06-22T08:52:21;100911.13;;;31.11
67829;BMP280;54626;45.436;10.942;2023-06-22T08:54:50;100916.22;;;31.52
67829;BMP280;54626;45.436;10.942;2023-06-22T08:57:17;100925.78;;;31.64
67829;BMP280;54626;45.436;10.942;2023-06-22T08:59:43;100912.78;;;31.98
67829;BMP280;54626;45.436;10.942;2023-06-22T09:02:19;100907.25;;;32.08
67829;BMP280;54626;45.436;10.942;2023-06-22T09:04:46;100897.44;;;32.21
67829;BMP280;54626;45.436;10.942;2023-06-22T09:07:12;100900.47;;;32.33
67829;BMP280;54626;45.436;10.942;2023-06-22T09:09:39;100903.47;;;32.41
67829;BMP280;54626;45.436;10.942;2023-06-22T09:12:06;100901.91;;;32.34
67829;BMP280;54626;45.436;10.942;2023-06-22T09:14:32;100895.59;;;31.98
67829;BMP280;54626;45.436;10.942;2023-06-22T09:16:59;100900.50;;;32.35
67829;BMP280;54626;45.436;10.942;2023-06-22T09:19:26;100891.72;;;32.72
67829;BMP280;54626;45.436;10.942;2023-06-22T09:21:52;100892.81;;;32.98
67829;BMP280;54626;45.436;10.942;2023-06-22T09:24:19;100892.75;;;32.94
67829;BMP280;54626;45.436;10.942;2023-06-22T09:26:45;100893.00;;;33.14
67829;BMP280;54626;45.436;10.942;2023-06-22T09:29:12;100898.78;;;33.18
67829;BMP280;54626;45.436;10.942;2023-06-22T09:31:38;100897.41;;;33.25
67829;BMP280;54626;45.436;10.942;2023-06-22T09:34:05;100883.16;;;33.35
67829;BMP280;54626;45.436;10.942;2023-06-22T09:36:32;100889.22;;;33.64
67829;BMP280;54626;45.436;10.942;2023-06-22T09:38:58;100883.75;;;33.96
67829;BMP280;54626;45.436;10.942;2023-06-22T09:41:25;100877.72;;;33.64
67829;BMP280;54626;45.436;10.942;2023-06-22T09:43:52;100879.94;;;33.66
67829;BMP280;54626;45.436;10.942;2023-06-22T09:46:22;100878.00;;;33.94
67829;BMP280;54626;45.436;10.942;2023-06-22T09:48:51;100872.34;;;34.10
67829;BMP280;54626;45.436;10.942;2023-06-22T09:51:18;100864.75;;;33.56
67829;BMP280;54626;45.436;10.942;2023-06-22T09:53:46;100853.84;;;33.44
67829;BMP280;54626;45.436;10.942;2023-06-22T09:56:16;100849.69;;;33.59
67829;BMP280;54626;45.436;10.942;2023-06-22T09:58:44;100839.03;;;33.71
67829;BMP280;54626;45.436;10.942;2023-06-22T10:01:12;100846.63;;;34.28
67829;BMP280;54626;45.436;10.942;2023-06-22T10:03:40;100845.97;;;34.35
67829;BMP280;54626;45.436;10.942;2023-06-22T10:06:20;100830.22;;;34.52
67829;BMP280;54626;45.436;10.942;2023-06-22T10:08:53;100825.22;;;34.62
67829;BMP280;54626;45.436;10.942;2023-06-22T10:11:19;100822.75;;;33.98
67829;BMP280;54626;45.436;10.942;2023-06-22T10:13:46;100816.75;;;33.66
67829;BMP280;54626;45.436;10.942;2023-06-22T10:16:13;100812.72;;;34.03
67829;BMP280;54626;45.436;10.942;2023-06-22T10:18:39;100815.03;;;34.34
67829;BMP280;54626;45.436;10.942;2023-06-22T10:21:06;100809.34;;;34.47
67829;BMP280;54626;45.436;10.942;2023-06-22T10:23:32;100805.16;;;34.80
67829;BMP280;54626;45.436;10.942;2023-06-22T10:25:59;100813.69;;;34.52
67829;BMP280;54626;45.436;10.942;2023-06-22T10:28:26;100817.94;;;34.38
67829;BMP280;54626;45.436;10.942;2023-06-22T10:31:07;100812.94;;;34.44
67829;BMP280;54626;45.436;10.942;2023-06-22T10:33:34;100815.06;;;34.42
67829;BMP280;54626;45.436;10.942;2023-06-22T10:36:00;100816.59;;;34.62
67829;BMP280;54626;45.436;10.942;2023-06-22T10:38:27;100815.97;;;34.93
67829;BMP280;54626;45.436;10.942;2023-06-22T10:40:53;100809.56;;;35.23
67829;BMP280;54626;45.436;10.942;2023-06-22T10:43:21;100809.53;;;35.25
67829;BMP280;54626;45.436;10.942;2023-06-22T10:45:57;100812.44;;;35.36
67829;BMP280;54626;45.436;10.942;2023-06-22T10:48:23;100809.53;;;35.27
67829;BMP280;54626;45.436;10.942;2023-06-22T10:50:50;100801.63;;;35.31
67829;BMP280;54626;45.436;10.942;2023-06-22T10:53:16;100812.44;;;35.19
67829;BMP280;54626;45.436;10.942;2023-06-22T10:55:43;100809.53;;;35.42
67829;BMP280;54626;45.436;10.942;2023-06-22T11:01:06;100816.78;;;35.57
67829;BMP280;54626;45.436;10.942;2023-06-22T11:03:40;100815.34;;;35.60
67829;BMP280;54626;45.436;10.942;2023-06-22T11:06:06;100810.28;;;35.27
67829;BMP280;54626;45.436;10.942;2023-06-22T11:08:39;100806.69;;;35.48
67829;BMP280;54626;45.436;10.942;2023-06-22T11:13:43;100809.53;;;35.94
67829;BMP280;54626;45.436;10.942;2023-06-22T11:16:10;100809.56;;;35.62
67829;BMP280;54626;45.436;10.942;2023-06-22T11:18:36;100814.59;;;35.68
67829;BMP280;54626;45.436;10.942;2023-06-22T11:21:03;100801.63;;;35.59
67829;BMP280;54626;45.436;10.942;2023-06-22T11:23:30;100798.00;;;35.90
67829;BMP280;54626;45.436;10.942;2023-06-22T11:25:57;100792.91;;;36.02
67829;BMP280;54626;45.436;10.942;2023-06-22T11:28:23;100789.34;;;36.00
67829;BMP280;54626;45.436;10.942;2023-06-22T11:30:50;100795.09;;;36.04
67829;BMP280;54626;45.436;10.942;2023-06-22T11:33:16;100803.00;;;36.05
67829;BMP280;54626;45.436;10.942;2023-06-22T11:35:43;100789.38;;;35.82
67829;BMP280;54626;45.436;10.942;2023-06-22T11:38:10;100777.72;;;36.29
67829;BMP280;54626;45.436;10.942;2023-06-22T11:40:37;100773.34;;;36.32
67829;BMP280;54626;45.436;10.942;2023-06-22T11:43:03;100779.09;;;36.34
67829;BMP280;54626;45.436;10.942;2023-06-22T11:45:30;100763.22;;;36.39
67829;BMP280;54626;45.436;10.942;2023-06-22T11:47:56;100763.88;;;36.53
67829;BMP280;54626;45.436;10.942;2023-06-22T11:50:23;100753.97;;;36.11
67829;BMP280;54626;45.436;10.942;2023-06-22T11:52:49;100761.66;;;36.60
67829;BMP280;54626;45.436;10.942;2023-06-22T11:55:17;100755.31;;;36.34
67829;BMP280;54626;45.436;10.942;2023-06-22T11:57:57;100757.34;;;36.59
67829;BMP280;54626;45.436;10.942;2023-06-22T12:00:35;100751.78;;;36.23
67829;BMP280;54626;45.436;10.942;2023-06-22T12:03:16;100747.34;;;36.42
67829;BMP280;54626;45.436;10.942;2023-06-22T12:05:43;100742.88;;;36.69
67829;BMP280;54626;45.436;10.942;2023-06-22T12:08:10;100735.63;;;36.74
67829;BMP280;54626;45.436;10.942;2023-06-22T12:10:36;100739.09;;;36.86
67829;BMP280;54626;45.436;10.942;2023-06-22T12:13:03;100726.72;;;37.03
67829;BMP280;54626;45.436;10.942;2023-06-22T12:15:29;100726.88;;;36.82
67829;BMP280;54626;45.436;10.942;2023-06-22T12:21:21;100719.75;;;36.71
67829;BMP280;54626;45.436;10.942;2023-06-22T12:23:48;100708.69;;;37.03
67829;BMP280;54626;45.436;10.942;2023-06-22T12:26:14;100713.53;;;37.24
67829;BMP280;54626;45.436;10.942;2023-06-22T12:28:41;100706.41;;;37.15
67829;BMP280;54626;45.436;10.942;2023-06-22T12:31:08;100709.13;;;37.33
67829;BMP280;54626;45.436;10.942;2023-06-22T12:33:34;100707.41;;;37.58
67829;BMP280;54626;45.436;10.942;2023-06-22T12:36:00;100709.84;;;37.93
67829;BMP280;54626;45.436;10.942;2023-06-22T12:38:31;100699.34;;;37.66
67829;BMP280;54626;45.436;10.942;2023-06-22T12:40:58;100696.34;;;38.30
67829;BMP280;54626;45.436;10.942;2023-06-22T12:43:25;100694.34;;;38.18
67829;BMP280;54626;45.436;10.942;2023-06-22T12:45:51;100686.31;;;38.23
67829;BMP280;54626;45.436;10.942;2023-06-22T12:48:47;100687.88;;;38.14
67829;BMP280;54626;45.436;10.942;2023-06-22T12:51:21;100682.31;;;37.98
67829;BMP280;54626;45.436;10.942;2023-06-22T12:53:48;100692.41;;;38.01
67829;BMP280;54626;45.436;10.942;2023-06-22T12:56:15;100693.81;;;38.02
67829;BMP280;54626;45.436;10.942;2023-06-22T12:58:41;100692.63;;;38.35
67829;BMP280;54626;45.436;10.942;2023-06-22T13:01:08;100687.47;;;38.42
67829;BMP280;54626;45.436;10.942;2023-06-22T13:03:35;100684.84;;;38.24
67829;BMP280;54626;45.436;10.942;2023-06-22T13:06:01;100692.22;;;38.61
67829;BMP280;54626;45.436;10.942;2023-06-22T13:08:30;100694.28;;;38.66
67829;BMP280;54626;45.436;10.942;2023-06-22T13:11:16;100695.75;;;38.19
67829;BMP280;54626;45.436;10.942;2023-06-22T13:13:45;100694.06;;;37.86
67829;BMP280;54626;45.436;10.942;2023-06-22T13:16:15;100693.88;;;37.98
67829;BMP280;54626;45.436;10.942;2023-06-22T13:18:41;100695.78;;;37.64
67829;BMP280;54626;45.436;10.942;2023-06-22T13:21:08;100688.50;;;38.22
67829;BMP280;54626;45.436;10.942;2023-06-22T13:23:35;100680.59;;;38.65
67829;BMP280;54626;45.436;10.942;2023-06-22T13:26:02;100679.59;;;38.80
67829;BMP280;54626;45.436;10.942;2023-06-22T13:28:33;100672.75;;;38.55
67829;BMP280;54626;45.436;10.942;2023-06-22T13:31:25;100677.94;;;38.91
67829;BMP280;54626;45.436;10.942;2023-06-22T13:33:51;100685.66;;;39.06
67829;BMP280;54626;45.436;10.942;2023-06-22T13:36:26;100672.03;;;38.57
67829;BMP280;54626;45.436;10.942;2023-06-22T13:38:52;100672.97;;;38.85
67829;BMP280;54626;45.436;10.942;2023-06-22T13:41:19;100674.38;;;39.26
67829;BMP280;54626;45.436;10.942;2023-06-22T13:43:46;100666.75;;;39.09
67829;BMP280;54626;45.436;10.942;2023-06-22T13:46:13;100663.38;;;38.97
67829;BMP280;54626;45.436;10.942;2023-06-22T13:48:39;100659.63;;;39.02
67829;BMP280;54626;45.436;10.942;2023-06-22T13:51:09;100664.72;;;39.38
67829;BMP280;54626;45.436;10.942;2023-06-22T13:53:36;100671.94;;;39.41
67829;BMP280;54626;45.436;10.942;2023-06-22T13:56:03;100675.69;;;38.97
67829;BMP280;54626;45.436;10.942;2023-06-22T13:58:30;100678.06;;;39.25
67829;BMP280;54626;45.436;10.942;2023-06-22T14:00:57;100677.13;;;39.34
67829;BMP280;54626;45.436;10.942;2023-06-22T14:03:23;100679.19;;;39.02
67829;BMP280;54626;45.436;10.942;2023-06-22T14:05:50;100682.91;;;39.34
67829;BMP280;54626;45.436;10.942;2023-06-22T14:08:16;100680.53;;;39.45
67829;BMP280;54626;45.436;10.942;2023-06-22T14:11:03;100676.59;;;38.86
67829;BMP280;54626;45.436;10.942;2023-06-22T14:13:30;100673.38;;;39.40
67829;BMP280;54626;45.436;10.942;2023-06-22T14:15:56;100676.03;;;39.16
67829;BMP280;54626;45.436;10.942;2023-06-22T14:18:23;100680.53;;;39.45
67829;BMP280;54626;45.436;10.942;2023-06-22T14:20:50;100683.72;;;39.31
67829;BMP280;54626;45.436;10.942;2023-06-22T14:23:16;100677.72;;;39.03
67829;BMP280;54626;45.436;10.942;2023-06-22T14:25:43;100675.03;;;38.51
67829;BMP280;54626;45.436;10.942;2023-06-22T14:28:10;100680.03;;;38.96